< < Back
Terminal Aerodrome Forecast


Current Version              Previous Versions:   1  2  3  4  5  6  7  8  9  

Terminal Aerodrome Forecast

960
FTUS42 KFFC 220900 AAB
TAFPDK
TAF AMD
KPDK 220958Z 2210/2306 00000KT P6SM OVC009
      TEMPO 2210/2214 SCT009 BKN025
     FM221400 07003KT 6SM BR SCT007 BKN012
     FM221600 07003KT P6SM VCSH SCT020 BKN035
      TEMPO 2219/2223 5SM -TSRA BR BKN020CB
     FM230000 00000KT P6SM BKN035=



Latest METAR

532
SAUS70 KWBC 222100 RRJ
MTRPDK
METAR KPDK 222053Z 00000KT 10SM FEW028 OVC100 28/21 A3009 RMK AO2 SLP172
60000 T02830206 56014


USA.gov is the U.S. government's official web portal to all federal, state and local government web resources and services.